Time;durP1;ratioP1;P1;durP2;ratioP2;P2;SDS_P1;SDS_P2;PMS_P1;PMS_P2;Temp;Humidity;BMP_temperature;BMP_pressure;BME280_temperature;BME280_humidity;BME280_pressure;Samples;Min_cycle;Max_cycle;Signal;HPM_P1;HPM_P2
2021/04/10 00:02:13;;;;;;;400.50;261.30;;;;;;;;;;4976273;28;20041;-78
2021/04/10 00:04:39;;;;;;;403.27;260.77;;;;;;;;;;4976689;28;20037;-78
2021/04/10 00:07:05;;;;;;;414.95;260.13;;;;;;;;;;4976822;28;20023;-79
2021/04/10 00:09:31;;;;;;;407.23;255.15;;;;;;;;;;4965910;28;20035;-78
2021/04/10 00:11:57;;;;;;;401.15;254.25;;;;;;;;;;4968189;28;20033;-78
2021/04/10 00:14:23;;;;;;;403.08;252.20;;;;;;;;;;4971865;28;20050;-79
2021/04/10 00:16:49;;;;;;;400.10;252.93;;;;;;;;;;4959338;28;20027;-79
2021/04/10 00:19:15;;;;;;;397.38;252.15;;;;;;;;;;4976641;28;20030;-79
2021/04/10 00:21:41;;;;;;;400.00;256.63;;;;;;;;;;4964025;28;20034;-79
2021/04/10 00:24:08;;;;;;;410.23;260.15;;;;;;;;;;4976990;28;20069;-79
2021/04/10 00:26:40;;;;;;;411.05;265.27;;;;;;;;;;4962634;28;20502;-78
2021/04/10 00:29:06;;;;;;;412.55;267.83;;;;;;;;;;4971329;28;20094;-78
2021/04/10 00:31:33;;;;;;;405.20;255.45;;;;;;;;;;4972471;28;20053;-79
2021/04/10 00:33:59;;;;;;;401.75;253.68;;;;;;;;;;4975835;28;20057;-78
2021/04/10 00:36:26;;;;;;;403.00;254.23;;;;;;;;;;4994085;28;20074;-79
2021/04/10 00:38:52;;;;;;;409.75;258.13;;;;;;;;;;4973919;28;20129;-79
2021/04/10 00:41:18;;;;;;;403.15;249.10;;;;;;;;;;4972892;28;20034;-78
2021/04/10 00:43:44;;;;;;;409.48;257.33;;;;;;;;;;4975790;28;20030;-78
2021/04/10 00:46:10;;;;;;;401.27;253.13;;;;;;;;;;4990386;28;20023;-79
2021/04/10 00:48:36;;;;;;;409.05;258.80;;;;;;;;;;4979291;28;20034;-79
2021/04/10 00:51:02;;;;;;;407.67;261.00;;;;;;;;;;4981145;28;20022;-78
2021/04/10 00:53:28;;;;;;;408.35;255.65;;;;;;;;;;4993991;28;20840;-79
2021/04/10 00:55:57;;;;;;;411.35;255.30;;;;;;;;;;4975775;28;20580;-79
2021/04/10 00:58:22;;;;;;;408.27;261.38;;;;;;;;;;4993479;28;20026;-79
2021/04/10 01:00:49;;;;;;;406.85;259.42;;;;;;;;;;4968303;28;20025;-78
2021/04/10 01:03:16;;;;;;;404.88;256.55;;;;;;;;;;4957088;28;20033;-78
2021/04/10 01:05:42;;;;;;;406.60;250.65;;;;;;;;;;4970038;28;20060;-78
2021/04/10 01:08:08;;;;;;;404.55;250.10;;;;;;;;;;4957163;28;20125;-78
2021/04/10 01:10:34;;;;;;;405.95;254.00;;;;;;;;;;4963436;28;20126;-78
2021/04/10 01:13:06;;;;;;;401.42;250.43;;;;;;;;;;4976650;28;20054;-79
2021/04/10 01:15:54;;;;;;;407.85;249.25;;;;;;;;;;4969295;28;20085;-78
2021/04/10 01:18:29;;;;;;;411.15;259.15;;;;;;;;;;4968227;28;20030;-79
2021/04/10 01:21:01;;;;;;;413.42;259.88;;;;;;;;;;4969394;28;20036;-78
2021/04/10 01:23:46;;;;;;;407.73;259.80;;;;;;;;;;4975907;28;20138;-79
2021/04/10 01:26:30;;;;;;;402.23;251.95;;;;;;;;;;4993840;28;20030;-78
2021/04/10 01:28:58;;;;;;;402.17;246.15;;;;;;;;;;4987935;28;20085;-78
2021/04/10 01:31:31;;;;;;;403.55;253.13;;;;;;;;;;4987796;28;20046;-79
2021/04/10 01:34:02;;;;;;;400.83;246.82;;;;;;;;;;4993800;28;20014;-79
2021/04/10 01:36:33;;;;;;;402.50;250.40;;;;;;;;;;4980934;28;20074;-79
2021/04/10 01:38:59;;;;;;;407.17;257.38;;;;;;;;;;4968190;28;20036;-79
2021/04/10 01:41:26;;;;;;;398.27;244.25;;;;;;;;;;5002947;28;20478;-79
2021/04/10 01:43:53;;;;;;;402.00;256.45;;;;;;;;;;4973836;28;20026;-79
2021/04/10 01:46:19;;;;;;;415.27;257.40;;;;;;;;;;4991116;28;20030;-79
2021/04/10 01:48:46;;;;;;;403.27;252.02;;;;;;;;;;5007196;28;20126;-79
2021/04/10 01:51:13;;;;;;;404.48;260.50;;;;;;;;;;4990999;28;20021;-79
2021/04/10 01:53:40;;;;;;;402.88;250.68;;;;;;;;;;4966941;28;20047;-79
2021/04/10 01:56:06;;;;;;;405.35;256.25;;;;;;;;;;5000696;28;20025;-79
2021/04/10 01:58:33;;;;;;;403.15;246.88;;;;;;;;;;5001669;28;20141;-79
2021/04/10 02:00:59;;;;;;;397.92;247.10;;;;;;;;;;4994429;28;20106;-78
2021/04/10 02:03:25;;;;;;;399.50;255.70;;;;;;;;;;4986319;28;20475;-79
2021/04/10 02:05:52;;;;;;;408.75;257.83;;;;;;;;;;4981108;28;20089;-79
2021/04/10 02:08:18;;;;;;;402.88;246.65;;;;;;;;;;4998031;28;20022;-79
2021/04/10 02:10:45;;;;;;;399.98;251.35;;;;;;;;;;5003978;28;20451;-79
2021/04/10 02:13:11;;;;;;;399.38;251.95;;;;;;;;;;5004298;28;20027;-78
2021/04/10 02:15:37;;;;;;;406.70;251.52;;;;;;;;;;4979260;28;20364;-78
2021/04/10 02:18:03;;;;;;;397.00;245.00;;;;;;;;;;4980462;28;20027;-79
2021/04/10 02:20:29;;;;;;;404.48;253.32;;;;;;;;;;4999243;28;20034;-79
2021/04/10 02:22:56;;;;;;;398.15;246.73;;;;;;;;;;4978057;28;20025;-80
2021/04/10 02:25:26;;;;;;;403.60;251.23;;;;;;;;;;4979746;28;20372;-79
2021/04/10 02:27:53;;;;;;;398.35;248.27;;;;;;;;;;4983731;28;20034;-78
2021/04/10 02:30:20;;;;;;;404.75;248.85;;;;;;;;;;4974530;28;20030;-79
2021/04/10 02:33:05;;;;;;;403.00;251.45;;;;;;;;;;4972062;28;20027;-78
2021/04/10 02:35:31;;;;;;;400.92;256.30;;;;;;;;;;4981354;28;20042;-79
2021/04/10 02:37:58;;;;;;;395.98;245.55;;;;;;;;;;4999124;28;20056;-78
2021/04/10 02:40:27;;;;;;;402.90;247.32;;;;;;;;;;4998842;28;20054;-79
2021/04/10 02:42:53;;;;;;;401.05;249.73;;;;;;;;;;4997826;28;20038;-79
2021/04/10 02:45:25;;;;;;;398.95;248.43;;;;;;;;;;4978014;28;20089;-78
2021/04/10 02:47:51;;;;;;;402.50;250.07;;;;;;;;;;5000029;28;20033;-78
2021/04/10 02:50:18;;;;;;;404.20;249.60;;;;;;;;;;5009480;28;20057;-79
2021/04/10 02:52:46;;;;;;;406.17;254.43;;;;;;;;;;4998332;28;20030;-78
2021/04/10 02:55:14;;;;;;;403.30;259.85;;;;;;;;;;4973646;28;20395;-79
2021/04/10 02:57:41;;;;;;;409.75;256.55;;;;;;;;;;4988986;28;20018;-78
2021/04/10 03:00:07;;;;;;;406.20;250.90;;;;;;;;;;4984099;28;20030;-78
2021/04/10 03:02:35;;;;;;;400.60;248.23;;;;;;;;;;4999068;28;20473;-78
2021/04/10 03:05:01;;;;;;;398.67;251.60;;;;;;;;;;5009187;28;20721;-78
2021/04/10 03:07:27;;;;;;;398.60;251.25;;;;;;;;;;4990102;28;20088;-78
2021/04/10 03:09:54;;;;;;;402.48;253.20;;;;;;;;;;5013075;28;20022;-78
2021/04/10 03:12:20;;;;;;;398.95;247.25;;;;;;;;;;4991415;28;20054;-79
2021/04/10 03:14:47;;;;;;;403.00;249.75;;;;;;;;;;4990333;28;20585;-78
2021/04/10 03:17:14;;;;;;;403.45;247.73;;;;;;;;;;5008412;28;20609;-78
2021/04/10 03:19:41;;;;;;;401.23;253.05;;;;;;;;;;4995810;28;20124;-77
2021/04/10 03:22:09;;;;;;;397.15;249.68;;;;;;;;;;4994576;28;20113;-78
2021/04/10 03:24:35;;;;;;;407.75;253.35;;;;;;;;;;4997117;28;20033;-79
2021/04/10 03:27:01;;;;;;;400.70;249.55;;;;;;;;;;4989782;28;20031;-79
2021/04/10 03:29:27;;;;;;;405.33;252.30;;;;;;;;;;5005189;28;20101;-79
2021/04/10 03:31:55;;;;;;;401.48;251.90;;;;;;;;;;4979653;28;20027;-79
2021/04/10 03:34:21;;;;;;;399.52;246.23;;;;;;;;;;4996260;28;20031;-79
2021/04/10 03:36:47;;;;;;;397.58;242.75;;;;;;;;;;5001738;28;20421;-78
2021/04/10 03:39:20;;;;;;;407.77;259.80;;;;;;;;;;4988760;28;20022;-79
2021/04/10 03:41:46;;;;;;;398.65;250.68;;;;;;;;;;4984944;28;20030;-78
2021/04/10 03:44:12;;;;;;;409.40;256.88;;;;;;;;;;4987718;28;20019;-79
2021/04/10 03:46:38;;;;;;;406.00;255.63;;;;;;;;;;4987352;28;20022;-79
2021/04/10 03:49:04;;;;;;;402.00;248.65;;;;;;;;;;4986263;28;20038;-78
2021/04/10 03:51:31;;;;;;;405.15;258.27;;;;;;;;;;4990234;28;20029;-77
2021/04/10 03:53:57;;;;;;;567.90;304.52;;;;;;;;;;4975931;28;20030;-79
2021/04/10 03:56:23;;;;;;;572.78;306.23;;;;;;;;;;4979211;28;20022;-79
2021/04/10 03:58:49;;;;;;;574.03;305.40;;;;;;;;;;4977406;28;20078;-79
2021/04/10 04:01:15;;;;;;;405.40;255.23;;;;;;;;;;4968870;28;20071;-79
2021/04/10 04:03:41;;;;;;;394.75;244.65;;;;;;;;;;4973791;28;20027;-79
2021/04/10 04:06:07;;;;;;;398.90;248.73;;;;;;;;;;5004716;28;20033;-79
2021/04/10 04:08:33;;;;;;;392.95;247.60;;;;;;;;;;4980965;28;20587;-78
2021/04/10 04:10:59;;;;;;;398.27;243.63;;;;;;;;;;4991679;28;20077;-78
2021/04/10 04:13:25;;;;;;;390.80;246.25;;;;;;;;;;4989407;28;20042;-78
2021/04/10 04:15:51;;;;;;;386.45;241.38;;;;;;;;;;4980700;28;20030;-79
2021/04/10 04:18:17;;;;;;;388.40;242.27;;;;;;;;;;4975870;28;20022;-79
2021/04/10 04:20:43;;;;;;;397.13;247.63;;;;;;;;;;4976013;28;20026;-79
2021/04/10 04:23:09;;;;;;;390.02;251.00;;;;;;;;;;4986890;28;20030;-79
2021/04/10 04:25:35;;;;;;;394.38;242.00;;;;;;;;;;4976494;28;20481;-78
2021/04/10 04:28:01;;;;;;;393.10;244.10;;;;;;;;;;4971223;28;20434;-78
2021/04/10 04:30:42;;;;;;;397.13;253.80;;;;;;;;;;4973754;28;20050;-78
2021/04/10 04:33:08;;;;;;;389.17;237.85;;;;;;;;;;4967931;28;20026;-78
2021/04/10 04:35:34;;;;;;;388.95;241.85;;;;;;;;;;4967383;28;20667;-78
2021/04/10 04:38:00;;;;;;;387.55;245.05;;;;;;;;;;4983856;28;20093;-78
2021/04/10 04:40:26;;;;;;;389.17;250.50;;;;;;;;;;4975886;28;20018;-79
2021/04/10 04:42:52;;;;;;;389.05;244.82;;;;;;;;;;4979427;28;20027;-79
2021/04/10 04:45:18;;;;;;;386.30;244.98;;;;;;;;;;4974352;28;20068;-79
2021/04/10 04:47:44;;;;;;;390.27;245.88;;;;;;;;;;4993448;28;20034;-78
2021/04/10 04:50:10;;;;;;;391.98;246.45;;;;;;;;;;4980744;28;20040;-79
2021/04/10 04:52:36;;;;;;;390.55;239.80;;;;;;;;;;4977682;28;20719;-78
2021/04/10 04:55:02;;;;;;;387.52;241.02;;;;;;;;;;4976070;28;20050;-79
2021/04/10 04:57:29;;;;;;;395.30;240.60;;;;;;;;;;4975848;28;20627;-78
2021/04/10 04:59:55;;;;;;;386.05;242.70;;;;;;;;;;4992649;28;20021;-79
2021/04/10 05:02:21;;;;;;;390.42;248.73;;;;;;;;;;4976287;28;20113;-79
2021/04/10 05:04:47;;;;;;;388.42;246.60;;;;;;;;;;4973993;28;20057;-78
2021/04/10 05:07:13;;;;;;;395.42;244.40;;;;;;;;;;4993464;28;20471;-79
2021/04/10 05:09:39;;;;;;;402.83;247.38;;;;;;;;;;4967572;28;20118;-78
2021/04/10 05:12:05;;;;;;;392.00;248.30;;;;;;;;;;4993363;28;20022;-79
2021/04/10 05:14:31;;;;;;;392.27;248.63;;;;;;;;;;4974600;28;20130;-79
2021/04/10 05:16:57;;;;;;;396.90;249.40;;;;;;;;;;4977107;28;20109;-79
2021/04/10 05:19:23;;;;;;;390.02;251.73;;;;;;;;;;4978274;28;20594;-78
2021/04/10 05:21:49;;;;;;;387.75;244.93;;;;;;;;;;4979866;28;20030;-78
2021/04/10 05:24:15;;;;;;;386.95;240.07;;;;;;;;;;4969080;28;20054;-79
2021/04/10 05:26:41;;;;;;;393.23;254.43;;;;;;;;;;4960203;28;20501;-79
2021/04/10 05:29:07;;;;;;;391.30;246.77;;;;;;;;;;4964620;28;20023;-79
2021/04/10 05:31:33;;;;;;;390.15;246.68;;;;;;;;;;4967721;28;20478;-78
2021/04/10 05:33:59;;;;;;;392.95;250.35;;;;;;;;;;4977504;28;20030;-78
2021/04/10 05:36:25;;;;;;;394.23;245.32;;;;;;;;;;4986284;28;20050;-77
2021/04/10 05:38:51;;;;;;;397.05;242.35;;;;;;;;;;5002923;28;20552;-77
2021/04/10 05:41:39;;;;;;;389.65;246.48;;;;;;;;;;4978444;28;20030;-80
2021/04/10 05:44:05;;;;;;;387.88;246.57;;;;;;;;;;4964960;28;20023;-79
2021/04/10 05:46:31;;;;;;;393.08;243.75;;;;;;;;;;4977402;28;20039;-77
2021/04/10 05:48:57;;;;;;;395.65;247.10;;;;;;;;;;4972967;28;20026;-78
2021/04/10 05:51:23;;;;;;;389.60;248.15;;;;;;;;;;4997143;28;20023;-77
2021/04/10 05:53:49;;;;;;;395.60;245.25;;;;;;;;;;4975654;28;20530;-79
2021/04/10 05:56:15;;;;;;;392.02;244.15;;;;;;;;;;4977487;28;20070;-78
2021/04/10 05:58:41;;;;;;;396.75;244.38;;;;;;;;;;4976339;28;20034;-77
2021/04/10 06:01:07;;;;;;;400.65;250.35;;;;;;;;;;4979009;28;20423;-78
2021/04/10 06:03:33;;;;;;;388.63;242.70;;;;;;;;;;4995738;28;20073;-79
2021/04/10 06:05:59;;;;;;;392.35;243.77;;;;;;;;;;4996445;28;20030;-80
2021/04/10 06:08:25;;;;;;;395.42;248.43;;;;;;;;;;4996435;28;20035;-81
2021/04/10 06:10:52;;;;;;;397.33;251.50;;;;;;;;;;4977472;28;20022;-80
2021/04/10 06:13:19;;;;;;;386.25;237.48;;;;;;;;;;4996068;28;20026;-79
2021/04/10 06:15:45;;;;;;;388.55;239.02;;;;;;;;;;4976988;28;20032;-77
2021/04/10 06:18:12;;;;;;;400.20;243.40;;;;;;;;;;4996100;28;20661;-80
2021/04/10 06:20:38;;;;;;;395.70;249.75;;;;;;;;;;4995783;28;20026;-81
2021/04/10 06:23:04;;;;;;;393.33;248.57;;;;;;;;;;4978955;28;20069;-79
2021/04/10 06:25:30;;;;;;;392.38;249.68;;;;;;;;;;4995558;28;20022;-78
2021/04/10 06:27:56;;;;;;;386.88;244.80;;;;;;;;;;4976891;28;20557;-78
2021/04/10 06:33:26;;;;;;;397.80;252.20;;;;;;;;;;4982954;28;20686;-80
2021/04/10 06:35:52;;;;;;;388.75;246.73;;;;;;;;;;4978543;28;20042;-78
2021/04/10 06:38:18;;;;;;;393.65;250.30;;;;;;;;;;4995400;28;20054;-79
2021/04/10 06:40:45;;;;;;;388.40;240.93;;;;;;;;;;4995375;28;20023;-80
2021/04/10 06:43:11;;;;;;;390.40;244.95;;;;;;;;;;4977747;28;20038;-75
2021/04/10 06:45:37;;;;;;;392.95;247.52;;;;;;;;;;4993826;28;20030;-78
2021/04/10 06:48:03;;;;;;;385.80;244.02;;;;;;;;;;4995006;28;20041;-78
2021/04/10 06:50:29;;;;;;;395.73;254.45;;;;;;;;;;4974019;28;20037;-77
2021/04/10 06:52:57;;;;;;;391.83;236.07;;;;;;;;;;4978676;28;20034;-79
2021/04/10 06:55:24;;;;;;;395.85;247.00;;;;;;;;;;4977922;28;20080;-76
2021/04/10 06:57:53;;;;;;;393.17;245.95;;;;;;;;;;4983376;28;20022;-78
2021/04/10 07:00:20;;;;;;;395.65;251.23;;;;;;;;;;4985774;28;20027;-78
2021/04/10 07:02:48;;;;;;;392.20;248.85;;;;;;;;;;4987183;28;20037;-79
2021/04/10 07:05:14;;;;;;;397.40;255.30;;;;;;;;;;4967504;28;20037;-78
2021/04/10 07:07:42;;;;;;;400.23;255.02;;;;;;;;;;4958904;28;20030;-80
2021/04/10 07:10:08;;;;;;;394.45;250.70;;;;;;;;;;4965426;28;20086;-77
2021/04/10 07:12:37;;;;;;;397.23;259.33;;;;;;;;;;4979577;28;20022;-80
2021/04/10 07:15:03;;;;;;;395.80;251.85;;;;;;;;;;4994341;28;20026;-77
2021/04/10 07:17:29;;;;;;;396.40;258.55;;;;;;;;;;4977815;28;20026;-79
2021/04/10 07:19:55;;;;;;;399.35;256.15;;;;;;;;;;4994423;28;20092;-79
2021/04/10 07:22:21;;;;;;;400.42;256.35;;;;;;;;;;4979179;28;20707;-78
2021/04/10 07:24:48;;;;;;;401.75;258.92;;;;;;;;;;4977410;28;20038;-77
2021/04/10 07:27:17;;;;;;;390.40;250.73;;;;;;;;;;4990530;28;20088;-76
2021/04/10 07:29:47;;;;;;;395.83;257.00;;;;;;;;;;4976746;28;20053;-78
2021/04/10 07:32:28;;;;;;;389.20;250.95;;;;;;;;;;4987115;28;20051;-77
2021/04/10 07:34:55;;;;;;;395.90;249.63;;;;;;;;;;4977923;28;20054;-78
2021/04/10 07:37:34;;;;;;;398.10;250.95;;;;;;;;;;4971467;28;20047;-78
2021/04/10 07:40:23;;;;;;;396.95;259.20;;;;;;;;;;4969396;28;20026;-77
2021/04/10 07:42:49;;;;;;;387.48;243.52;;;;;;;;;;4968699;28;20086;-76
2021/04/10 07:45:24;;;;;;;394.63;258.98;;;;;;;;;;4974509;28;20431;-76
2021/04/10 07:47:51;;;;;;;400.42;252.75;;;;;;;;;;4976496;28;20027;-78
2021/04/10 07:50:22;;;;;;;397.40;251.25;;;;;;;;;;4971824;28;20026;-73
2021/04/10 07:52:48;;;;;;;400.30;260.42;;;;;;;;;;4977326;28;20025;-79
2021/04/10 07:55:33;;;;;;;392.05;252.23;;;;;;;;;;4977216;28;20540;-82
2021/04/10 07:58:19;;;;;;;396.90;252.13;;;;;;;;;;4976876;28;20030;-80
2021/04/10 08:00:45;;;;;;;393.65;254.85;;;;;;;;;;4958884;28;20475;-75
2021/04/10 08:03:23;;;;;;;399.15;264.27;;;;;;;;;;4972298;28;20086;-76
2021/04/10 08:05:49;;;;;;;396.25;262.73;;;;;;;;;;4960211;28;20027;-74
2021/04/10 08:08:26;;;;;;;397.08;258.17;;;;;;;;;;4976545;28;20064;-77
2021/04/10 08:11:05;;;;;;;397.13;260.33;;;;;;;;;;4977353;28;20121;-77
2021/04/10 08:13:31;;;;;;;404.00;264.60;;;;;;;;;;4996165;28;20695;-78
2021/04/10 08:16:27;;;;;;;400.08;263.20;;;;;;;;;;4992191;28;20320;-76
2021/04/10 08:18:55;;;;;;;403.55;263.10;;;;;;;;;;4966962;28;20034;-78
2021/04/10 08:21:21;;;;;;;402.50;265.67;;;;;;;;;;4994986;28;20034;-79
2021/04/10 08:23:48;;;;;;;405.85;272.70;;;;;;;;;;4993922;28;20101;-75
2021/04/10 08:26:15;;;;;;;405.45;273.80;;;;;;;;;;4995380;28;20029;-77
2021/04/10 08:28:41;;;;;;;402.60;272.92;;;;;;;;;;4974641;28;20037;-85
2021/04/10 08:31:08;;;;;;;405.50;275.20;;;;;;;;;;4969324;28;20027;-78
2021/04/10 08:33:34;;;;;;;405.48;277.90;;;;;;;;;;4976844;28;20022;-76
2021/04/10 08:36:03;;;;;;;409.45;281.95;;;;;;;;;;4977986;28;20078;-77
2021/04/10 08:38:31;;;;;;;409.70;287.75;;;;;;;;;;4959023;28;20090;-79
2021/04/10 08:40:59;;;;;;;403.33;282.40;;;;;;;;;;4957990;28;20723;-76
2021/04/10 08:43:25;;;;;;;412.73;286.48;;;;;;;;;;4971796;28;20026;-77
2021/04/10 08:45:53;;;;;;;405.92;285.67;;;;;;;;;;4974973;28;20505;-77
2021/04/10 08:48:22;;;;;;;411.70;287.90;;;;;;;;;;4977228;28;20019;-78
2021/04/10 08:50:51;;;;;;;412.30;287.48;;;;;;;;;;4974513;28;20061;-78
2021/04/10 08:53:22;;;;;;;405.73;288.02;;;;;;;;;;4998503;28;20022;-75
2021/04/10 08:56:05;;;;;;;403.15;280.00;;;;;;;;;;4997413;28;20077;-81
2021/04/10 08:58:31;;;;;;;402.75;280.75;;;;;;;;;;4995514;28;20174;-74
2021/04/10 09:01:02;;;;;;;404.73;281.98;;;;;;;;;;4987065;28;20018;-77
2021/04/10 09:03:59;;;;;;;404.75;282.88;;;;;;;;;;4978573;28;20553;-74
2021/04/10 09:06:31;;;;;;;406.05;284.50;;;;;;;;;;4991921;28;20073;-75
2021/04/10 09:09:12;;;;;;;406.95;282.33;;;;;;;;;;4976153;28;20037;-78
2021/04/10 09:12:00;;;;;;;407.88;274.45;;;;;;;;;;4983953;28;20018;-78
2021/04/10 09:14:47;;;;;;;405.02;281.35;;;;;;;;;;4989009;28;20030;-79
2021/04/10 09:17:13;;;;;;;407.15;280.83;;;;;;;;;;4975136;28;20086;-76
2021/04/10 09:19:39;;;;;;;407.65;279.00;;;;;;;;;;4983164;28;20045;-83
2021/04/10 09:22:14;;;;;;;415.55;283.27;;;;;;;;;;4981490;28;20026;-78
2021/04/10 09:24:42;;;;;;;411.08;285.17;;;;;;;;;;5000709;28;20068;-79
2021/04/10 09:27:08;;;;;;;410.90;292.63;;;;;;;;;;4980869;28;20427;-78
2021/04/10 09:29:45;;;;;;;411.20;284.90;;;;;;;;;;4999323;28;20121;-80
2021/04/10 09:32:12;;;;;;;409.90;287.65;;;;;;;;;;4981355;28;20037;-77
2021/04/10 09:34:45;;;;;;;402.30;278.48;;;;;;;;;;4984655;28;20026;-80
2021/04/10 09:37:11;;;;;;;401.73;275.30;;;;;;;;;;4979697;28;20050;-76
2021/04/10 09:39:53;;;;;;;401.85;275.73;;;;;;;;;;4979130;28;20046;-77
2021/04/10 09:42:31;;;;;;;398.65;274.30;;;;;;;;;;4979342;28;20414;-75
2021/04/10 09:45:09;;;;;;;400.52;275.08;;;;;;;;;;4995547;28;20169;-75
2021/04/10 09:48:02;;;;;;;398.00;272.65;;;;;;;;;;4985044;28;20121;-78
2021/04/10 09:50:38;;;;;;;407.33;286.50;;;;;;;;;;4979473;28;20034;-76
2021/04/10 09:53:06;;;;;;;403.73;272.98;;;;;;;;;;4986484;28;20022;-76
2021/04/10 09:55:35;;;;;;;403.90;279.77;;;;;;;;;;4963189;28;20066;-77
2021/04/10 09:58:11;;;;;;;403.10;276.27;;;;;;;;;;4997358;28;20049;-76
2021/04/10 10:00:39;;;;;;;400.67;270.38;;;;;;;;;;4980045;28;20085;-76
2021/04/10 10:03:07;;;;;;;402.48;276.98;;;;;;;;;;4996261;28;20030;-78
2021/04/10 10:05:34;;;;;;;402.45;274.20;;;;;;;;;;4997583;28;20033;-76
2021/04/10 10:08:29;;;;;;;406.73;277.25;;;;;;;;;;5000764;28;20030;-76
2021/04/10 10:10:56;;;;;;;402.23;269.33;;;;;;;;;;4998349;28;20037;-81
2021/04/10 10:13:24;;;;;;;405.15;271.20;;;;;;;;;;4982908;28;20033;-80
2021/04/10 10:15:51;;;;;;;401.23;272.08;;;;;;;;;;4999639;28;20039;-77
2021/04/10 10:18:21;;;;;;;408.02;277.48;;;;;;;;;;4981822;28;20572;-78
2021/04/10 10:20:56;;;;;;;401.85;274.90;;;;;;;;;;4981105;28;20027;-78
2021/04/10 10:23:23;;;;;;;413.08;276.80;;;;;;;;;;4982378;28;20042;-75
2021/04/10 10:25:49;;;;;;;450.30;296.30;;;;;;;;;;5000167;28;20069;-75
2021/04/10 10:28:16;;;;;;;594.90;358.55;;;;;;;;;;4980430;28;20054;-79
2021/04/10 10:30:42;;;;;;;413.23;273.80;;;;;;;;;;4997585;28;20034;-78
2021/04/10 10:33:08;;;;;;;595.80;359.52;;;;;;;;;;4972324;28;20399;-76
2021/04/10 10:35:34;;;;;;;401.30;278.35;;;;;;;;;;4987572;28;20043;-80
2021/04/10 10:38:07;;;;;;;398.92;273.55;;;;;;;;;;4982773;28;20031;-77
2021/04/10 10:40:34;;;;;;;400.48;273.52;;;;;;;;;;5000892;28;20034;-79
2021/04/10 10:43:04;;;;;;;398.13;271.77;;;;;;;;;;4983570;28;20034;-76
2021/04/10 10:45:40;;;;;;;402.77;277.83;;;;;;;;;;5000222;28;20019;-80
2021/04/10 10:48:16;;;;;;;405.08;281.73;;;;;;;;;;4993449;28;20069;-81
2021/04/10 10:50:42;;;;;;;400.73;275.95;;;;;;;;;;4996000;28;20022;-77
2021/04/10 10:53:18;;;;;;;405.60;278.00;;;;;;;;;;4977438;28;20033;-78
2021/04/10 10:56:00;;;;;;;401.73;283.27;;;;;;;;;;4973661;28;20115;-82
2021/04/10 10:58:30;;;;;;;398.88;274.13;;;;;;;;;;4972654;28;20022;-77
2021/04/10 11:00:56;;;;;;;404.98;280.88;;;;;;;;;;4999225;28;20026;-82
2021/04/10 11:03:26;;;;;;;401.15;283.35;;;;;;;;;;4981468;28;20045;-77
2021/04/10 11:05:52;;;;;;;398.15;274.67;;;;;;;;;;5007253;28;20045;-77
2021/04/10 11:08:18;;;;;;;397.67;275.98;;;;;;;;;;4981090;28;20096;-74
2021/04/10 11:10:49;;;;;;;399.00;276.13;;;;;;;;;;4981957;28;20086;-79
2021/04/10 11:13:16;;;;;;;396.27;272.17;;;;;;;;;;4982839;28;20081;-78
2021/04/10 11:15:43;;;;;;;405.13;283.05;;;;;;;;;;4997549;28;20082;-82
2021/04/10 11:18:25;;;;;;;411.35;284.95;;;;;;;;;;4975907;28;20034;-74
2021/04/10 11:20:51;;;;;;;589.67;359.63;;;;;;;;;;4990421;28;20058;-76
2021/04/10 11:23:17;;;;;;;549.40;323.17;;;;;;;;;;4971316;28;20033;-78
2021/04/10 11:25:53;;;;;;;402.13;273.42;;;;;;;;;;4990460;28;20113;-76
2021/04/10 11:28:29;;;;;;;589.97;357.17;;;;;;;;;;4975271;28;20026;-78
2021/04/10 11:31:08;;;;;;;585.88;336.27;;;;;;;;;;4972794;28;20363;-77
2021/04/10 11:33:35;;;;;;;402.10;269.25;;;;;;;;;;4973600;28;20023;-75
2021/04/10 11:36:02;;;;;;;401.40;270.17;;;;;;;;;;4991741;28;20062;-73
2021/04/10 11:38:28;;;;;;;400.55;271.90;;;;;;;;;;4991862;28;20034;-75
2021/04/10 11:40:54;;;;;;;403.23;271.67;;;;;;;;;;4973672;28;20037;-77
2021/04/10 11:43:20;;;;;;;412.92;272.85;;;;;;;;;;4978568;28;20033;-78
2021/04/10 11:45:49;;;;;;;451.90;288.70;;;;;;;;;;4976083;28;20026;-79
2021/04/10 11:48:19;;;;;;;501.85;304.42;;;;;;;;;;4972545;28;20367;-77
2021/04/10 11:50:48;;;;;;;524.75;311.25;;;;;;;;;;4976758;28;20061;-80
2021/04/10 11:53:22;;;;;;;506.33;301.00;;;;;;;;;;4994114;28;20045;-79
2021/04/10 11:55:48;;;;;;;579.33;341.10;;;;;;;;;;4996565;28;20037;-79
2021/04/10 11:58:14;;;;;;;433.70;274.83;;;;;;;;;;4994375;28;20074;-81
2021/04/10 12:00:41;;;;;;;587.28;343.05;;;;;;;;;;4996989;28;20550;-81
2021/04/10 12:03:07;;;;;;;398.17;268.70;;;;;;;;;;4999148;28;20030;-83
2021/04/10 12:05:37;;;;;;;404.77;274.92;;;;;;;;;;4994676;28;20040;-78
2021/04/10 12:08:04;;;;;;;396.48;267.83;;;;;;;;;;4988664;28;20494;-75
2021/04/10 12:10:30;;;;;;;398.75;268.00;;;;;;;;;;4973478;28;20019;-75
2021/04/10 12:12:56;;;;;;;400.10;264.75;;;;;;;;;;4973412;28;20050;-75
2021/04/10 12:15:26;;;;;;;403.20;269.88;;;;;;;;;;4985872;28;20057;-75
2021/04/10 12:17:52;;;;;;;401.25;266.98;;;;;;;;;;4968209;28;20022;-78
2021/04/10 12:20:18;;;;;;;397.60;274.55;;;;;;;;;;4953619;28;20033;-77
2021/04/10 12:22:44;;;;;;;391.10;260.92;;;;;;;;;;4971433;28;20019;-73
2021/04/10 12:25:11;;;;;;;396.02;269.27;;;;;;;;;;4972826;28;20024;-76
2021/04/10 12:27:37;;;;;;;399.13;270.30;;;;;;;;;;4973626;28;20018;-77
2021/04/10 12:30:04;;;;;;;394.77;265.23;;;;;;;;;;4967428;28;20029;-77
2021/04/10 12:32:30;;;;;;;395.60;265.58;;;;;;;;;;4968574;28;20120;-75
2021/04/10 12:34:56;;;;;;;396.50;271.85;;;;;;;;;;4973494;28;20422;-75
2021/04/10 12:37:22;;;;;;;391.80;266.17;;;;;;;;;;4973274;28;20046;-77
2021/04/10 12:39:48;;;;;;;393.40;265.80;;;;;;;;;;4989572;28;20498;-77
2021/04/10 12:42:14;;;;;;;400.80;271.17;;;;;;;;;;4983444;28;20065;-75
2021/04/10 12:44:40;;;;;;;391.70;267.20;;;;;;;;;;4968772;28;20031;-77
2021/04/10 12:47:06;;;;;;;393.95;266.95;;;;;;;;;;4971530;28;20030;-79
2021/04/10 12:49:35;;;;;;;397.08;264.20;;;;;;;;;;4990477;28;20035;-76
2021/04/10 12:52:01;;;;;;;393.38;261.92;;;;;;;;;;4988771;28;20030;-78
2021/04/10 12:54:27;;;;;;;400.88;271.33;;;;;;;;;;4972427;28;20129;-76
2021/04/10 12:56:54;;;;;;;397.50;269.92;;;;;;;;;;4968470;28;20052;-76
2021/04/10 12:59:20;;;;;;;395.02;264.75;;;;;;;;;;4972723;28;20061;-74
2021/04/10 13:01:46;;;;;;;397.52;269.92;;;;;;;;;;4972785;28;20035;-74
2021/04/10 13:04:12;;;;;;;404.92;275.10;;;;;;;;;;4989221;28;20052;-75
2021/04/10 13:06:38;;;;;;;397.48;265.58;;;;;;;;;;4972606;28;20117;-76
2021/04/10 13:09:04;;;;;;;391.00;262.30;;;;;;;;;;4973431;28;20089;-76
2021/04/10 13:11:30;;;;;;;395.20;264.70;;;;;;;;;;4978918;28;20026;-74
2021/04/10 13:13:56;;;;;;;399.95;269.40;;;;;;;;;;4988756;28;20095;-74
2021/04/10 13:16:22;;;;;;;406.90;276.52;;;;;;;;;;4970504;28;20089;-74
2021/04/10 13:18:48;;;;;;;394.00;267.98;;;;;;;;;;4970586;28;20023;-73
2021/04/10 13:21:14;;;;;;;395.63;270.55;;;;;;;;;;4985842;28;20062;-74
2021/04/10 13:23:40;;;;;;;396.17;268.83;;;;;;;;;;4961217;28;20042;-74
2021/04/10 13:26:06;;;;;;;399.60;269.90;;;;;;;;;;4986976;28;20490;-74
2021/04/10 13:28:32;;;;;;;399.95;274.00;;;;;;;;;;4967219;28;20034;-74
2021/04/10 13:30:59;;;;;;;398.35;268.05;;;;;;;;;;4964529;28;20769;-75
2021/04/10 13:33:26;;;;;;;401.90;272.52;;;;;;;;;;4979289;28;20026;-75
2021/04/10 13:35:52;;;;;;;401.00;275.70;;;;;;;;;;4970181;28;20081;-76
2021/04/10 13:38:18;;;;;;;400.23;270.13;;;;;;;;;;4987992;28;20676;-74
2021/04/10 13:40:44;;;;;;;401.75;269.70;;;;;;;;;;4975538;28;20061;-74
2021/04/10 13:43:11;;;;;;;395.45;271.45;;;;;;;;;;4988824;28;20064;-75
2021/04/10 13:45:37;;;;;;;397.27;270.52;;;;;;;;;;4972170;28;20027;-76
2021/04/10 13:48:03;;;;;;;399.52;269.48;;;;;;;;;;4972315;28;20793;-79
2021/04/10 13:50:29;;;;;;;395.08;264.38;;;;;;;;;;4975393;28;20034;-75
2021/04/10 13:52:55;;;;;;;390.85;265.23;;;;;;;;;;4990560;28;20031;-75
2021/04/10 13:55:20;;;;;;;400.08;274.55;;;;;;;;;;4974394;28;20038;-76
2021/04/10 13:57:46;;;;;;;392.73;263.98;;;;;;;;;;4990410;28;20023;-76
2021/04/10 14:00:13;;;;;;;396.08;266.80;;;;;;;;;;4973311;28;20030;-76
2021/04/10 14:02:39;;;;;;;398.85;264.85;;;;;;;;;;4973568;28;20387;-74